Time;durP1;ratioP1;P1;durP2;ratioP2;P2;SDS_P1;SDS_P2;PMS_P1;PMS_P2;Temp;Humidity;BMP_temperature;BMP_pressure;BME280_temperature;BME280_humidity;BME280_pressure;Samples;Min_cycle;Max_cycle;Signal;HPM_P1;HPM_P2
2022/06/04 00:00:13;;;;;;;29.70;27.17;;;18.80;99.90;;;;;;5054894;28;20442;-84
2022/06/04 00:02:41;;;;;;;27.47;25.27;;;18.80;99.90;;;;;;5054693;28;20462;-85
2022/06/04 00:05:10;;;;;;;27.10;25.10;;;18.70;99.90;;;;;;5062833;28;20446;-83
2022/06/04 00:07:37;;;;;;;24.43;22.40;;;18.70;99.90;;;;;;5060156;28;20464;-83
2022/06/04 00:15:40;;;;;;;21.40;19.47;;;18.70;99.90;;;;;;5055956;28;20428;-83
2022/06/04 00:18:07;;;;;;;21.03;19.27;;;18.60;99.90;;;;;;5071866;28;20473;-82
2022/06/04 00:20:33;;;;;;;21.03;19.33;;;18.60;99.90;;;;;;5077407;28;20500;-83
2022/06/04 00:23:01;;;;;;;20.37;18.70;;;18.50;99.90;;;;;;5061962;28;20457;-83
2022/06/04 00:25:31;;;;;;;20.03;18.40;;;18.50;99.90;;;;;;5057812;28;20980;-83
2022/06/04 00:28:00;;;;;;;19.00;17.40;;;18.50;99.90;;;;;;5058388;28;20437;-83
2022/06/04 00:30:27;;;;;;;27.03;19.27;;;18.50;99.90;;;;;;5055538;28;20455;-83
2022/06/04 00:32:54;;;;;;;21.20;19.50;;;18.60;99.90;;;;;;5064314;28;20507;-83
2022/06/04 00:35:21;;;;;;;19.80;18.10;;;18.50;99.90;;;;;;5055117;28;20444;-83
2022/06/04 00:37:49;;;;;;;18.73;17.27;;;18.40;99.90;;;;;;5054203;28;20480;-83
2022/06/04 00:40:26;;;;;;;19.90;18.10;;;18.40;99.90;;;;;;5054533;28;20479;-84
2022/06/04 00:42:56;;;;;;;19.30;17.63;;;18.40;99.90;;;;;;5058193;28;20447;-83
2022/06/04 00:45:59;;;;;;;21.43;19.70;;;18.30;99.90;;;;;;5054097;28;20502;-83
2022/06/04 00:48:27;;;;;;;19.43;17.70;;;18.30;99.90;;;;;;5054303;28;20434;-83
2022/06/04 00:50:55;;;;;;;20.20;18.70;;;18.20;99.90;;;;;;5054498;28;20476;-83
2022/06/04 00:53:22;;;;;;;21.43;19.60;;;18.20;99.90;;;;;;5066938;28;20461;-83
2022/06/04 00:55:56;;;;;;;19.70;18.00;;;18.20;99.90;;;;;;5064111;28;20448;-82
2022/06/04 00:58:40;;;;;;;20.63;19.03;;;18.20;99.90;;;;;;5055252;28;20598;-83
2022/06/04 01:01:13;;;;;;;19.20;17.50;;;18.20;99.90;;;;;;5056618;28;20981;-83
2022/06/04 01:03:53;;;;;;;18.40;16.93;;;18.20;99.90;;;;;;5054092;28;20452;-83
2022/06/04 01:06:30;;;;;;;18.37;16.77;;;18.20;99.90;;;;;;5069845;28;20464;-82
2022/06/04 01:09:15;;;;;;;21.20;19.00;;;18.20;99.90;;;;;;5070216;28;20448;-83
2022/06/04 01:12:10;;;;;;;17.27;15.77;;;18.20;99.90;;;;;;5060515;28;20469;-83
2022/06/04 01:14:52;;;;;;;16.53;15.10;;;18.20;99.90;;;;;;5077950;28;20503;-82
2022/06/04 01:17:23;;;;;;;17.00;15.67;;;18.20;99.90;;;;;;5061256;28;21136;-84
2022/06/04 01:20:02;;;;;;;16.33;14.70;;;18.20;99.90;;;;;;5056573;28;20451;-84
2022/06/04 01:22:49;;;;;;;17.57;16.13;;;18.20;99.90;;;;;;5057515;28;20474;-84
2022/06/04 01:25:26;;;;;;;17.83;16.43;;;18.30;99.90;;;;;;5054271;28;20807;-84
2022/06/04 01:27:59;;;;;;;17.57;16.07;;;18.30;99.90;;;;;;5053932;28;20441;-84
2022/06/04 01:30:28;;;;;;;16.90;15.30;;;18.30;99.90;;;;;;5053059;28;20476;-84
2022/06/04 01:32:59;;;;;;;17.20;15.60;;;18.30;99.90;;;;;;5053357;28;20456;-85
2022/06/04 01:35:32;;;;;;;19.40;17.53;;;18.10;99.90;;;;;;5053452;28;20948;-83
2022/06/04 01:38:03;;;;;;;19.40;17.70;;;18.20;99.90;;;;;;5052915;28;20555;-83
2022/06/04 01:43:22;;;;;;;18.13;16.63;;;18.10;99.90;;;;;;5056186;28;20444;-84
2022/06/04 01:45:51;;;;;;;17.87;16.17;;;18.10;99.90;;;;;;5072916;28;20483;-83
2022/06/04 01:48:21;;;;;;;16.37;14.73;;;18.10;99.90;;;;;;5054450;28;20452;-83
2022/06/04 01:50:52;;;;;;;17.10;15.70;;;18.10;99.90;;;;;;5053250;28;20468;-83
2022/06/04 01:53:20;;;;;;;16.80;15.20;;;18.00;99.90;;;;;;5054166;28;20445;-83
2022/06/04 01:55:51;;;;;;;17.77;15.90;;;18.00;99.90;;;;;;5053676;28;20449;-84
2022/06/04 01:58:22;;;;;;;17.37;16.03;;;17.90;99.90;;;;;;5054851;28;20487;-83
2022/06/04 02:00:56;;;;;;;15.63;14.13;;;17.80;99.90;;;;;;5058323;28;20472;-84
2022/06/04 02:03:29;;;;;;;16.00;14.80;;;17.70;99.90;;;;;;5065233;28;20444;-83
2022/06/04 02:05:59;;;;;;;16.53;15.00;;;17.70;99.90;;;;;;5062279;28;20487;-83
2022/06/04 02:08:32;;;;;;;16.47;14.97;;;17.60;99.90;;;;;;5060003;28;20448;-83
2022/06/04 02:11:04;;;;;;;15.47;14.27;;;17.70;99.90;;;;;;5056085;28;20467;-83
2022/06/04 02:13:34;;;;;;;16.87;15.33;;;17.70;99.90;;;;;;5057887;28;20451;-83
2022/06/04 02:16:05;;;;;;;15.40;14.10;;;17.70;99.90;;;;;;5076721;28;20444;-82
2022/06/04 02:18:32;;;;;;;17.33;15.67;;;17.70;99.90;;;;;;5076735;28;20477;-82
2022/06/04 02:20:58;;;;;;;18.27;16.63;;;17.60;99.90;;;;;;5076819;28;20477;-82
2022/06/04 02:23:25;;;;;;;18.93;17.33;;;17.50;99.90;;;;;;5076805;28;20433;-82
2022/06/04 02:25:52;;;;;;;18.00;16.40;;;17.50;99.90;;;;;;5078407;28;20436;-82
2022/06/04 02:28:20;;;;;;;17.30;15.77;;;17.60;99.90;;;;;;5080633;28;20498;-82
2022/06/04 02:31:01;;;;;;;15.90;14.40;;;17.50;99.90;;;;;;5080854;28;20533;-83
2022/06/04 02:33:37;;;;;;;16.20;14.70;;;17.50;99.90;;;;;;5081099;28;20439;-82
2022/06/04 02:36:07;;;;;;;18.77;17.17;;;17.60;99.90;;;;;;5080778;28;20432;-82
2022/06/04 02:38:40;;;;;;;15.80;14.50;;;17.50;99.90;;;;;;5078237;28;20488;-83
2022/06/04 02:41:14;;;;;;;15.13;13.83;;;17.50;99.90;;;;;;5065223;28;20869;-84
2022/06/04 02:43:44;;;;;;;15.67;14.07;;;17.60;99.90;;;;;;5055757;28;20858;-83
2022/06/04 02:46:21;;;;;;;15.03;13.03;;;17.50;99.90;;;;;;5056159;28;20452;-84
2022/06/04 02:48:58;;;;;;;15.57;13.97;;;17.50;99.90;;;;;;5055557;28;20448;-83
2022/06/04 02:51:33;;;;;;;15.50;13.93;;;17.40;99.90;;;;;;5071583;28;20472;-83
2022/06/04 02:54:03;;;;;;;14.77;13.57;;;17.40;99.90;;;;;;5075067;28;20450;-83
2022/06/04 02:56:33;;;;;;;16.20;14.70;;;17.40;99.90;;;;;;5056498;28;20452;-83
2022/06/04 02:59:04;;;;;;;14.90;13.60;;;17.30;99.90;;;;;;5072784;28;20479;-82
2022/06/04 03:01:37;;;;;;;16.40;14.70;;;17.30;99.90;;;;;;5075987;28;20475;-84
2022/06/04 03:04:05;;;;;;;15.10;13.67;;;17.40;99.90;;;;;;5067262;28;20444;-83
2022/06/04 03:06:33;;;;;;;14.60;13.30;;;17.40;99.90;;;;;;5064654;28;20448;-83
2022/06/04 03:09:01;;;;;;;15.80;14.30;;;17.40;99.90;;;;;;5056367;28;20816;-83
2022/06/04 03:11:28;;;;;;;13.30;12.10;;;17.40;99.90;;;;;;5057058;28;20474;-83
2022/06/04 03:13:55;;;;;;;13.67;12.57;;;17.40;99.90;;;;;;5073625;28;20444;-84
2022/06/04 03:16:22;;;;;;;14.00;12.70;;;17.40;99.90;;;;;;5061995;28;20443;-83
2022/06/04 03:18:50;;;;;;;14.40;12.90;;;17.50;99.90;;;;;;5060234;28;20488;-83
2022/06/04 03:21:17;;;;;;;14.10;12.90;;;17.50;99.90;;;;;;5067275;28;20470;-83
2022/06/04 03:23:43;;;;;;;13.13;11.93;;;17.50;99.90;;;;;;5058898;28;20448;-83
2022/06/04 03:26:10;;;;;;;14.03;12.73;;;17.50;99.90;;;;;;5058015;28;20455;-84
2022/06/04 03:28:37;;;;;;;13.70;12.30;;;17.40;99.90;;;;;;5059459;28;20448;-84
2022/06/04 03:31:03;;;;;;;13.77;12.07;;;17.40;99.90;;;;;;5059884;28;20466;-84
2022/06/04 03:33:30;;;;;;;13.27;12.17;;;17.40;99.90;;;;;;5057844;28;20452;-83
2022/06/04 03:35:58;;;;;;;14.03;12.73;;;17.40;99.90;;;;;;5056124;28;20452;-83
2022/06/04 03:38:25;;;;;;;14.07;12.70;;;17.50;99.90;;;;;;5056073;28;20477;-84
2022/06/04 03:40:52;;;;;;;14.57;13.17;;;17.50;99.90;;;;;;5076672;28;20514;-83
2022/06/04 03:43:19;;;;;;;14.00;12.60;;;17.60;99.90;;;;;;5056892;28;20440;-83
2022/06/04 03:45:45;;;;;;;13.53;12.33;;;17.60;99.90;;;;;;5055595;28;20445;-84
2022/06/04 03:48:12;;;;;;;14.97;13.33;;;17.50;99.90;;;;;;5057360;28;20453;-83
2022/06/04 03:50:39;;;;;;;13.80;12.50;;;17.50;99.90;;;;;;5056474;28;20467;-83
2022/06/04 03:53:07;;;;;;;13.40;12.10;;;17.60;99.90;;;;;;5056741;28;20787;-83
2022/06/04 03:55:34;;;;;;;13.93;12.67;;;17.60;99.90;;;;;;5065237;28;20475;-83
2022/06/04 03:58:01;;;;;;;12.43;11.27;;;17.50;99.90;;;;;;5065318;28;20444;-83
2022/06/04 04:00:30;;;;;;;11.83;10.83;;;17.30;99.90;;;;;;5055789;28;20858;-84
2022/06/04 04:02:59;;;;;;;13.03;12.00;;;17.30;99.90;;;;;;5055788;28;20965;-84
2022/06/04 04:05:27;;;;;;;14.30;13.00;;;17.40;99.90;;;;;;5056382;28;20452;-84
2022/06/04 04:07:55;;;;;;;12.03;11.13;;;17.50;99.90;;;;;;5056000;28;20952;-84
2022/06/04 04:10:25;;;;;;;11.63;10.73;;;17.70;99.90;;;;;;5055637;28;20488;-84
2022/06/04 04:12:52;;;;;;;11.57;10.67;;;17.80;99.90;;;;;;5058016;28;20447;-83
2022/06/04 04:15:19;;;;;;;11.37;10.47;;;18.00;99.90;;;;;;5064632;28;20452;-84
2022/06/04 04:17:47;;;;;;;11.00;9.90;;;18.00;99.90;;;;;;5063690;28;20456;-84
2022/06/04 04:20:17;;;;;;;11.63;10.63;;;18.00;99.90;;;;;;5057888;28;20576;-84
2022/06/04 04:22:45;;;;;;;11.17;10.07;;;18.00;99.90;;;;;;5055949;28;20454;-83
2022/06/04 04:25:12;;;;;;;12.10;10.90;;;18.00;99.90;;;;;;5056774;28;20446;-83
2022/06/04 04:27:41;;;;;;;10.80;9.90;;;18.00;99.90;;;;;;5061901;28;20455;-84
2022/06/04 04:30:10;;;;;;;11.20;10.20;;;18.00;99.90;;;;;;5070908;28;20933;-84
2022/06/04 04:32:36;;;;;;;11.80;10.80;;;18.00;99.90;;;;;;5061830;28;20476;-84
2022/06/04 04:35:07;;;;;;;11.80;10.80;;;18.00;99.90;;;;;;5061408;28;20948;-84
2022/06/04 04:37:34;;;;;;;12.00;10.97;;;18.00;99.90;;;;;;5055281;28;20867;-84
2022/06/04 04:40:01;;;;;;;10.87;9.83;;;18.10;99.90;;;;;;5055863;28;20490;-84
2022/06/04 04:42:28;;;;;;;11.23;10.33;;;18.20;99.90;;;;;;5055211;28;20466;-84
2022/06/04 04:44:56;;;;;;;11.40;10.40;;;18.20;99.90;;;;;;5075173;28;20432;-83
2022/06/04 04:47:23;;;;;;;11.80;10.80;;;18.30;99.90;;;;;;5066845;28;20964;-84
2022/06/04 04:49:50;;;;;;;10.63;9.73;;;18.40;99.90;;;;;;5058364;28;20457;-84
2022/06/04 04:52:16;;;;;;;11.90;10.90;;;18.50;99.90;;;;;;5068061;22;20575;-87
2022/06/04 04:54:43;;;;;;;10.73;9.60;;;18.70;99.90;;;;;;5060255;28;20420;-86
2022/06/04 04:57:10;;;;;;;10.90;9.90;;;18.90;99.90;;;;;;5078946;28;20496;-86
2022/06/04 04:59:37;;;;;;;11.43;10.50;;;19.10;99.90;;;;;;5051401;28;20528;-86
2022/06/04 05:02:05;;;;;;;11.03;10.03;;;19.30;99.90;;;;;;5066568;28;20463;-86
2022/06/04 05:04:32;;;;;;;9.77;8.97;;;19.50;99.90;;;;;;5068357;28;20442;-85
2022/06/04 05:06:59;;;;;;;10.00;9.20;;;19.70;99.90;;;;;;5054252;28;20937;-86
2022/06/04 05:09:26;;;;;;;10.57;9.57;;;19.70;99.90;;;;;;5060610;28;20453;-87
2022/06/04 05:11:53;;;;;;;10.50;9.60;;;19.60;99.90;;;;;;5078509;28;20541;-87
2022/06/04 05:14:19;;;;;;;9.60;8.80;;;19.60;99.90;;;;;;5078344;28;20431;-88
2022/06/04 05:16:46;;;;;;;9.87;8.50;;;19.60;99.90;;;;;;5065702;28;20436;-87
2022/06/04 05:19:14;;;;;;;10.37;8.87;;;19.70;99.90;;;;;;5076113;28;20490;-87
2022/06/04 05:21:46;;;;;;;10.40;9.47;;;19.70;99.90;;;;;;5069149;28;20449;-87
2022/06/04 05:24:17;;;;;;;10.03;9.03;;;19.70;99.90;;;;;;5063418;28;20442;-87
2022/06/04 05:26:44;;;;;;;8.73;8.03;;;19.70;99.90;;;;;;5056686;28;20450;-87
2022/06/04 05:29:11;;;;;;;10.20;9.40;;;19.70;99.90;;;;;;5058374;28;20442;-86
2022/06/04 05:31:39;;;;;;;9.00;8.20;;;19.80;99.90;;;;;;5055588;28;20486;-87
2022/06/04 05:34:06;;;;;;;9.20;8.50;;;19.90;99.90;;;;;;5054234;28;20837;-88
2022/06/04 05:36:35;;;;;;;11.27;9.67;;;20.00;99.90;;;;;;5055643;28;20431;-86
2022/06/04 05:39:03;;;;;;;9.20;8.40;;;20.00;99.90;;;;;;5053119;28;20485;-87
2022/06/04 05:41:29;;;;;;;11.20;10.00;;;20.10;99.90;;;;;;5054213;28;20909;-87
2022/06/04 05:43:56;;;;;;;9.80;8.80;;;20.20;99.90;;;;;;5066839;28;20445;-87
2022/06/04 05:46:23;;;;;;;9.87;9.17;;;20.20;99.90;;;;;;5078152;28;20436;-87
2022/06/04 05:48:50;;;;;;;10.83;9.70;;;20.20;99.90;;;;;;5077655;28;20447;-88
2022/06/04 05:51:20;;;;;;;9.97;9.10;;;20.10;99.90;;;;;;5077480;28;20542;-87
2022/06/04 05:53:49;;;;;;;11.60;10.47;;;20.10;99.90;;;;;;5072479;28;20438;-87
2022/06/04 05:56:18;;;;;;;11.10;10.10;;;20.20;99.90;;;;;;5058479;28;20440;-87
2022/06/04 05:58:46;;;;;;;10.57;9.57;;;20.10;99.90;;;;;;5077634;28;20459;-87
2022/06/04 06:01:13;;;;;;;8.97;8.33;;;20.10;99.90;;;;;;5079272;28;20485;-87
2022/06/04 06:03:40;;;;;;;10.07;9.17;;;20.00;99.90;;;;;;5078102;28;20442;-87
2022/06/04 06:06:12;;;;;;;11.67;10.67;;;20.00;99.90;;;;;;5070665;28;20455;-87
2022/06/04 06:08:39;;;;;;;10.70;9.60;;;19.90;99.90;;;;;;5062923;28;20434;-87
2022/06/04 06:11:09;;;;;;;9.63;8.70;;;19.80;99.90;;;;;;5059039;28;20458;-86
2022/06/04 06:13:36;;;;;;;9.77;8.93;;;19.70;99.90;;;;;;5058885;28;20446;-86
2022/06/04 06:16:08;;;;;;;10.60;9.70;;;19.60;99.90;;;;;;5060093;28;20451;-86
2022/06/04 06:18:35;;;;;;;10.90;10.00;;;19.50;99.90;;;;;;5059049;28;20433;-87
2022/06/04 06:21:05;;;;;;;10.73;9.83;;;19.30;99.90;;;;;;5066601;28;20531;-87
2022/06/04 06:23:32;;;;;;;10.13;9.23;;;19.30;99.90;;;;;;5061441;28;20458;-87
2022/06/04 06:26:04;;;;;;;10.17;9.03;;;19.30;99.90;;;;;;5058061;28;20473;-87
2022/06/04 06:28:33;;;;;;;20.27;12.17;;;19.30;99.90;;;;;;5058936;28;20519;-87
2022/06/04 06:31:00;;;;;;;16.30;12.53;;;19.10;99.90;;;;;;5057704;28;20449;-87
2022/06/04 06:33:26;;;;;;;13.00;11.70;;;19.00;99.90;;;;;;5070734;28;20444;-87
2022/06/04 06:35:57;;;;;;;13.33;12.10;;;18.90;99.90;;;;;;5080619;28;20433;-87
2022/06/04 06:38:24;;;;;;;12.87;11.60;;;18.80;99.90;;;;;;5066799;28;20465;-87
2022/06/04 06:40:51;;;;;;;14.50;10.33;;;18.70;99.90;;;;;;5057620;28;20496;-86
2022/06/04 06:43:18;;;;;;;12.60;11.30;;;18.70;99.90;;;;;;5057321;28;20445;-87
2022/06/04 06:45:47;;;;;;;13.43;12.13;;;18.80;99.90;;;;;;5056209;28;20452;-87
2022/06/04 06:48:14;;;;;;;12.63;11.33;;;18.80;99.90;;;;;;5056380;28;20448;-87
2022/06/04 06:50:42;;;;;;;13.10;11.90;;;18.70;99.90;;;;;;5056557;28;20457;-87
2022/06/04 06:53:09;;;;;;;13.57;12.27;;;18.80;99.90;;;;;;5038029;28;20974;-86
2022/06/04 06:55:36;;;;;;;14.70;13.00;;;18.80;99.90;;;;;;5061680;28;20448;-86
2022/06/04 06:58:03;;;;;;;15.60;12.87;;;18.90;99.90;;;;;;5074430;28;20441;-87
2022/06/04 07:00:30;;;;;;;12.90;11.73;;;19.00;99.90;;;;;;5074456;28;20496;-87
2022/06/04 07:02:58;;;;;;;12.77;11.67;;;19.20;99.90;;;;;;5070277;28;20455;-81
2022/06/04 07:05:25;;;;;;;13.17;11.87;;;19.20;99.90;;;;;;5066701;28;20447;-81
2022/06/04 07:07:51;;;;;;;13.50;12.50;;;19.20;99.90;;;;;;5059400;28;20940;-82
2022/06/04 07:10:18;;;;;;;13.60;12.43;;;19.20;99.90;;;;;;5059683;28;20450;-82
2022/06/04 07:12:45;;;;;;;13.30;12.30;;;19.00;99.90;;;;;;5059064;28;20476;-81
2022/06/04 07:15:12;;;;;;;14.43;13.03;;;18.90;99.90;;;;;;5059490;28;20439;-82
2022/06/04 07:17:39;;;;;;;14.63;13.53;;;19.00;99.90;;;;;;5059156;28;20456;-80
2022/06/04 07:20:08;;;;;;;13.13;12.03;;;19.10;99.90;;;;;;5059861;28;20486;-80
2022/06/04 07:22:35;;;;;;;14.93;13.53;;;19.20;99.90;;;;;;5059012;28;20471;-80
2022/06/04 07:25:01;;;;;;;15.87;14.47;;;19.40;99.90;;;;;;5056599;28;20450;-80
2022/06/04 07:27:28;;;;;;;14.63;12.90;;;19.50;99.90;;;;;;5057165;28;20952;-80
2022/06/04 07:29:55;;;;;;;13.63;11.67;;;19.70;99.90;;;;;;5058941;28;20444;-82
2022/06/04 07:32:22;;;;;;;13.27;12.20;;;20.00;99.90;;;;;;5064492;28;20466;-82
2022/06/04 07:34:49;;;;;;;13.63;12.47;;;20.30;99.90;;;;;;5075108;28;20440;-82
2022/06/04 07:37:17;;;;;;;13.77;12.77;;;21.20;99.90;;;;;;5064717;28;20444;-82
2022/06/04 07:39:46;;;;;;;10.83;10.03;;;22.40;99.90;;;;;;5066830;28;20485;-82
2022/06/04 07:42:12;;;;;;;11.83;10.83;;;23.00;99.90;;;;;;5070766;28;20481;-82
2022/06/04 07:44:40;;;;;;;11.40;10.47;;;23.40;99.90;;;;;;5063521;28;20457;-82
2022/06/04 07:47:07;;;;;;;12.20;11.20;;;23.40;99.90;;;;;;5061228;28;20436;-82
2022/06/04 07:49:34;;;;;;;12.70;11.57;;;23.70;99.90;;;;;;5061566;28;20458;-83
2022/06/04 07:52:04;;;;;;;13.20;11.57;;;24.00;99.90;;;;;;5061708;28;20484;-83
2022/06/04 07:54:34;;;;;;;12.07;10.90;;;24.20;99.90;;;;;;5059489;28;20881;-83
2022/06/04 07:57:01;;;;;;;12.10;11.20;;;24.30;99.90;;;;;;5062689;28;21260;-83
2022/06/04 07:59:28;;;;;;;13.20;12.13;;;24.30;99.90;;;;;;5058523;28;20448;-83
2022/06/04 08:01:55;;;;;;;12.93;11.83;;;24.30;99.90;;;;;;5060888;28;20471;-83
2022/06/04 08:04:22;;;;;;;14.87;13.40;;;24.50;99.90;;;;;;5052759;28;20479;-82
2022/06/04 08:06:49;;;;;;;14.97;13.87;;;24.50;99.90;;;;;;5064905;28;20909;-82
2022/06/04 08:09:15;;;;;;;15.00;13.50;;;24.30;99.90;;;;;;5049909;28;20438;-81
2022/06/04 08:11:44;;;;;;;13.23;12.13;;;24.50;99.90;;;;;;5053690;28;20461;-82
2022/06/04 08:14:14;;;;;;;12.17;11.17;;;26.20;99.90;;;;;;5060607;28;20822;-83
2022/06/04 08:16:43;;;;;;;13.47;12.47;;;28.30;99.90;;;;;;5055146;28;20929;-84
2022/06/04 08:19:10;;;;;;;13.43;12.27;;;28.50;97.00;;;;;;5053870;28;20431;-83
2022/06/04 08:21:38;;;;;;;13.43;12.43;;;27.80;97.00;;;;;;5075067;28;20474;-83
2022/06/04 08:24:06;;;;;;;14.03;12.93;;;27.00;98.80;;;;;;5072370;28;20451;-84
2022/06/04 08:26:33;;;;;;;15.30;14.10;;;26.00;99.50;;;;;;5062204;28;20446;-84
2022/06/04 08:29:01;;;;;;;14.60;13.40;;;25.30;99.90;;;;;;5057417;28;20459;-83
2022/06/04 08:31:29;;;;;;;14.30;13.20;;;25.10;99.90;;;;;;5060061;28;20461;-83
2022/06/04 08:33:56;;;;;;;15.57;14.37;;;25.00;99.90;;;;;;5064622;28;20476;-83
2022/06/04 08:36:23;;;;;;;19.20;17.67;;;24.80;99.90;;;;;;5075840;28;20436;-82
2022/06/04 08:38:53;;;;;;;18.57;17.00;;;23.80;99.90;;;;;;5060293;28;21013;-82
2022/06/04 08:41:27;;;;;;;18.67;17.33;;;23.70;99.90;;;;;;5056318;28;20490;-83
2022/06/04 08:44:03;;;;;;;18.43;17.03;;;23.90;99.90;;;;;;5058436;28;20534;-82
2022/06/04 08:46:35;;;;;;;19.70;18.27;;;24.00;99.90;;;;;;5056429;28;20461;-84
2022/06/04 08:49:06;;;;;;;16.40;15.00;;;24.50;99.90;;;;;;5064250;28;20441;-84
2022/06/04 08:51:34;;;;;;;16.40;15.10;;;26.60;99.90;;;;;;5060684;28;20472;-83
2022/06/04 08:57:32;;;;;;;13.90;12.80;;;28.10;98.70;;;;;;5064580;28;20441;-84
2022/06/04 08:59:51;;;;;;;13.00;12.10;;;30.50;92.50;;;;;;5055635;28;21005;-83
2022/06/04 09:02:25;;;;;;;12.77;11.87;;;31.40;88.30;;;;;;5058617;28;20476;-84
2022/06/04 09:05:02;;;;;;;11.87;10.97;;;31.70;85.30;;;;;;5071178;28;20508;-84
2022/06/04 09:07:35;;;;;;;11.93;10.93;;;33.10;81.40;;;;;;5069630;28;20440;-84
2022/06/04 09:10:27;;;;;;;12.00;11.10;;;33.30;77.60;;;;;;5060112;28;20934;-84
2022/06/04 09:12:59;;;;;;;11.50;10.60;;;33.60;76.80;;;;;;5062244;28;20491;-84
2022/06/04 09:15:38;;;;;;;11.73;10.93;;;34.00;73.80;;;;;;5056000;28;20793;-84
2022/06/04 09:18:16;;;;;;;10.63;9.93;;;34.40;71.80;;;;;;5053457;28;20448;-84
2022/06/04 09:20:46;;;;;;;12.37;11.37;;;35.10;68.00;;;;;;5056929;28;20532;-83
2022/06/04 09:23:19;;;;;;;11.00;10.23;;;34.40;67.70;;;;;;5060022;28;20951;-83
2022/06/04 09:25:55;;;;;;;11.90;11.03;;;34.00;68.50;;;;;;5051915;28;20444;-85
2022/06/04 09:28:34;;;;;;;11.10;10.20;;;34.60;67.20;;;;;;5055498;28;20987;-83
2022/06/04 09:31:14;;;;;;;10.23;9.63;;;36.00;64.70;;;;;;5047931;28;20476;-83
2022/06/04 09:33:51;;;;;;;11.00;10.10;;;37.70;60.80;;;;;;5053918;28;20440;-83
2022/06/04 09:36:22;;;;;;;11.43;10.63;;;39.10;56.00;;;;;;5053932;28;20440;-82
2022/06/04 09:38:54;;;;;;;11.37;10.67;;;40.10;54.80;;;;;;5059995;28;20828;-82
2022/06/04 09:41:23;;;;;;;12.50;11.70;;;41.50;52.50;;;;;;5056450;28;20464;-82
2022/06/04 09:44:00;;;;;;;11.87;10.87;;;40.40;51.00;;;;;;5050597;28;20535;-80
2022/06/04 09:46:29;;;;;;;12.60;11.80;;;38.10;53.20;;;;;;5048982;28;20440;-82
2022/06/04 09:48:56;;;;;;;12.07;11.17;;;34.50;58.80;;;;;;5057142;28;20447;-81
2022/06/04 09:51:26;;;;;;;10.97;10.17;;;33.30;63.60;;;;;;5055424;28;20495;-82
2022/06/04 09:54:00;;;;;;;12.60;11.63;;;32.30;66.80;;;;;;5047827;28;20433;-83
2022/06/04 09:56:33;;;;;;;12.10;11.10;;;31.50;70.00;;;;;;5054723;28;20527;-82
2022/06/04 09:59:09;;;;;;;12.03;11.20;;;31.00;71.70;;;;;;5058314;28;20451;-81
2022/06/04 10:01:37;;;;;;;10.97;10.07;;;31.00;73.10;;;;;;5064511;28;20456;-82
2022/06/04 10:04:13;;;;;;;12.20;11.40;;;31.20;72.80;;;;;;5063986;28;20440;-82
2022/06/04 10:06:40;;;;;;;11.50;10.57;;;31.50;73.00;;;;;;5065528;28;20436;-81
2022/06/04 10:12:03;;;;;;;13.10;12.10;;;31.30;73.10;;;;;;5060925;28;20886;-81
2022/06/04 10:14:30;;;;;;;14.17;13.17;;;30.40;76.00;;;;;;5059384;28;20452;-81
2022/06/04 10:16:59;;;;;;;13.33;12.20;;;29.10;79.50;;;;;;5058133;28;20443;-86
2022/06/04 10:19:26;;;;;;;13.83;12.63;;;28.20;83.20;;;;;;5060164;28;20451;-81
2022/06/04 10:22:05;;;;;;;13.90;13.00;;;27.40;86.50;;;;;;5060299;28;20460;-85
2022/06/04 10:24:36;;;;;;;15.67;14.50;;;26.70;90.10;;;;;;5061735;28;20833;-85
2022/06/04 10:27:22;;;;;;;17.30;16.00;;;26.20;91.50;;;;;;5058906;28;20972;-91
2022/06/04 10:30:09;;;;;;;14.87;13.87;;;25.90;92.90;;;;;;5058311;28;20449;-89
2022/06/04 10:32:53;;;;;;;15.87;14.77;;;25.80;93.70;;;;;;5054640;28;20472;-88
2022/06/04 10:35:31;;;;;;;15.27;14.17;;;25.80;93.90;;;;;;5053925;28;20795;-88
2022/06/04 10:38:12;;;;;;;16.27;14.97;;;25.90;94.20;;;;;;5054235;28;20449;-87
2022/06/04 10:40:47;;;;;;;15.80;14.47;;;26.00;94.20;;;;;;5066355;28;20443;-89
2022/06/04 10:43:26;;;;;;;13.63;12.63;;;26.10;94.30;;;;;;5055730;28;20452;-88
2022/06/04 10:46:04;;;;;;;13.80;12.80;;;26.20;94.10;;;;;;5054436;28;20498;-86
2022/06/04 10:48:48;;;;;;;16.90;15.37;;;26.40;93.80;;;;;;5058953;28;20451;-87
2022/06/04 10:51:27;;;;;;;17.20;15.90;;;26.80;93.60;;;;;;5073609;28;20492;-88
2022/06/04 10:54:02;;;;;;;20.47;19.07;;;27.20;92.70;;;;;;5059486;28;20443;-87
2022/06/04 10:56:35;;;;;;;19.30;17.67;;;26.90;92.40;;;;;;5059182;28;20468;-87
2022/06/04 10:59:09;;;;;;;17.97;16.77;;;26.60;93.50;;;;;;5067453;28;20839;-87
2022/06/04 11:01:41;;;;;;;18.77;17.27;;;26.30;93.90;;;;;;5075127;28;20513;-87
2022/06/04 11:04:20;;;;;;;17.03;15.77;;;25.90;94.10;;;;;;5067877;28;20444;-87
2022/06/04 11:06:51;;;;;;;18.23;16.63;;;25.60;94.50;;;;;;5062143;28;20436;-88
2022/06/04 11:09:22;;;;;;;22.13;20.40;;;25.50;95.30;;;;;;5073679;28;20413;-87
2022/06/04 11:11:53;;;;;;;22.83;21.00;;;25.10;96.70;;;;;;5067217;28;20487;-88
2022/06/04 11:14:29;;;;;;;23.73;21.77;;;25.00;97.60;;;;;;5060296;28;20493;-86
2022/06/04 11:17:00;;;;;;;21.20;19.40;;;24.90;98.00;;;;;;5062239;28;20456;-86
2022/06/04 11:19:34;;;;;;;21.87;20.17;;;24.90;98.20;;;;;;5057311;28;20873;-87
2022/06/04 11:22:10;;;;;;;20.40;18.90;;;24.90;98.10;;;;;;5056580;28;20499;-87
2022/06/04 11:24:44;;;;;;;23.20;21.23;;;24.90;98.10;;;;;;5057332;28;20443;-87
2022/06/04 11:27:16;;;;;;;23.27;21.47;;;24.90;98.20;;;;;;5057046;28;20968;-88
2022/06/04 11:29:43;;;;;;;25.10;22.90;;;24.80;98.70;;;;;;5058288;28;20868;-89
2022/06/04 11:32:19;;;;;;;25.90;23.70;;;24.70;99.40;;;;;;5060910;28;20996;-87
2022/06/04 11:35:02;;;;;;;22.67;21.07;;;24.50;99.80;;;;;;5060455;28;20447;-87
2022/06/04 11:37:40;;;;;;;22.93;21.33;;;24.50;99.90;;;;;;5057474;28;20933;-87
2022/06/04 11:40:20;;;;;;;23.27;21.37;;;24.30;99.90;;;;;;5058865;28;20452;-88
2022/06/04 11:42:55;;;;;;;23.53;21.73;;;24.30;99.90;;;;;;5059966;28;20470;-88
2022/06/04 11:45:55;;;;;;;22.67;20.97;;;24.30;99.90;;;;;;5074533;28;20435;-88
2022/06/04 11:48:39;;;;;;;22.20;20.50;;;24.30;99.90;;;;;;5074951;28;20453;-89
2022/06/04 11:51:25;;;;;;;21.90;20.27;;;24.40;99.90;;;;;;5080016;28;20486;-89
2022/06/04 11:53:57;;;;;;;20.70;19.10;;;24.40;99.90;;;;;;5079290;28;20455;-88
2022/06/04 11:56:35;;;;;;;22.20;20.60;;;24.40;99.90;;;;;;5079747;28;20415;-89
2022/06/04 11:59:32;;;;;;;22.00;20.40;;;24.50;99.90;;;;;;5077542;28;20443;-87
2022/06/04 12:02:05;;;;;;;21.70;20.10;;;24.60;99.90;;;;;;5079924;28;20457;-88
2022/06/04 12:04:37;;;;;;;20.33;18.77;;;24.70;99.90;;;;;;5079421;28;20436;-88
2022/06/04 12:07:09;;;;;;;19.20;17.80;;;25.10;99.90;;;;;;5059265;28;20431;-88
2022/06/04 12:09:42;;;;;;;18.63;17.27;;;25.70;99.40;;;;;;5056398;28;20425;-87
2022/06/04 12:12:17;;;;;;;20.97;19.27;;;26.70;97.70;;;;;;5058128;28;20480;-87
2022/06/04 12:14:51;;;;;;;19.77;18.30;;;27.30;95.60;;;;;;5056875;28;20465;-87
2022/06/04 12:17:22;;;;;;;19.53;18.03;;;27.00;94.80;;;;;;5059296;28;20429;-87
2022/06/04 12:25:38;;;;;;;18.60;17.17;;;27.30;94.50;;;;;;5065843;28;20447;-87
2022/06/04 12:28:25;;;;;;;18.13;16.63;;;27.60;94.10;;;;;;5070824;28;20444;-87
2022/06/04 12:30:53;;;;;;;19.93;18.57;;;27.50;93.60;;;;;;5068630;28;20436;-87
2022/06/04 12:33:28;;;;;;;20.03;18.57;;;28.50;91.80;;;;;;5058912;28;20455;-86
2022/06/04 12:35:57;;;;;;;18.40;16.90;;;29.30;90.30;;;;;;5058107;28;20851;-87
2022/06/04 12:38:26;;;;;;;19.37;17.97;;;30.30;87.20;;;;;;5060622;28;20456;-88
2022/06/04 12:41:05;;;;;;;18.47;17.17;;;30.40;85.00;;;;;;5060215;28;20452;-88
2022/06/04 12:43:35;;;;;;;18.10;16.80;;;29.60;86.80;;;;;;5058905;28;20949;-87
2022/06/04 12:46:13;;;;;;;16.30;14.93;;;29.50;86.90;;;;;;5058575;28;20447;-88
2022/06/04 12:48:52;;;;;;;21.37;19.63;;;29.00;87.80;;;;;;5058178;28;20494;-87
2022/06/04 12:51:35;;;;;;;16.83;15.63;;;29.30;87.80;;;;;;5058285;28;20490;-88
2022/06/04 12:54:08;;;;;;;16.30;15.00;;;29.80;86.30;;;;;;5065372;28;20459;-87
2022/06/04 12:56:38;;;;;;;15.00;14.00;;;30.40;82.40;;;;;;5069975;28;20421;-86
2022/06/04 12:59:23;;;;;;;15.40;14.27;;;29.80;82.90;;;;;;5060821;28;20440;-87
2022/06/04 13:01:50;;;;;;;16.37;15.10;;;30.10;81.80;;;;;;5055853;28;20464;-87
2022/06/04 13:04:22;;;;;;;16.00;14.83;;;30.50;81.00;;;;;;5057220;28;20448;-87
2022/06/04 13:06:53;;;;;;;14.73;13.63;;;30.20;81.30;;;;;;5062936;28;20440;-87